createdAt,value
2022-11-17T00:01:08.301Z,5.98
2022-11-17T00:04:10.191Z,6.01
2022-11-17T00:07:12.114Z,6.03
2022-11-17T00:10:14.052Z,5.97
2022-11-17T00:13:17.358Z,5.94
2022-11-17T00:16:21.201Z,6.01
2022-11-17T00:19:23.141Z,6.01
2022-11-17T00:22:25.541Z,5.99
2022-11-17T00:25:27.380Z,6.03
2022-11-17T00:28:30.774Z,6.01
2022-11-17T00:31:34.002Z,6.04
2022-11-17T00:34:35.922Z,6.03
2022-11-17T00:37:39.970Z,6.10
2022-11-17T00:40:42.070Z,6.07
2022-11-17T00:43:45.328Z,6.04
2022-11-17T00:46:47.360Z,6.03
2022-11-17T00:49:49.301Z,5.99
2022-11-17T00:52:51.200Z,5.99
2022-11-17T00:55:53.124Z,6.03
2022-11-17T00:58:56.514Z,6.03
2022-11-17T01:01:58.466Z,5.93
2022-11-17T01:05:00.506Z,5.93
2022-11-17T01:08:02.370Z,5.97
2022-11-17T01:11:07.052Z,5.98
2022-11-17T01:14:15.052Z,5.95
2022-11-17T01:17:16.946Z,5.97
2022-11-17T01:20:19.229Z,6.03
2022-11-17T01:23:21.166Z,6.03
2022-11-17T01:26:27.391Z,6.00
2022-11-17T01:29:30.807Z,5.97
2022-11-17T01:32:32.760Z,5.98
2022-11-17T01:35:34.666Z,5.95
2022-11-17T01:38:36.599Z,5.91
2022-11-17T01:41:38.552Z,5.89
2022-11-17T01:44:57.330Z,5.89
2022-11-17T01:48:02.010Z,5.80
2022-11-17T01:51:04.052Z,5.82
2022-11-17T01:54:06.971Z,5.83
2022-11-17T01:57:13.626Z,5.78
2022-11-17T02:00:18.329Z,5.80
2022-11-17T02:03:22.652Z,5.82
2022-11-17T02:06:32.353Z,5.72
2022-11-17T02:09:37.393Z,5.70
2022-11-17T02:12:40.909Z,5.70
2022-11-17T02:15:44.471Z,5.68
2022-11-17T02:18:48.435Z,5.64
2022-11-17T02:22:20.367Z,5.69
2022-11-17T02:25:45.030Z,5.56
2022-11-17T02:28:52.712Z,5.61
2022-11-17T02:32:03.317Z,5.65
2022-11-17T02:35:16.829Z,5.67
2022-11-17T02:38:29.925Z,5.68
2022-11-17T02:41:38.475Z,5.66
2022-11-17T02:44:49.168Z,5.65
2022-11-17T02:47:54.622Z,5.63
2022-11-17T02:50:58.315Z,5.59
2022-11-17T02:54:02.206Z,5.59
2022-11-17T02:57:04.292Z,5.63
2022-11-17T03:00:11.527Z,5.61
2022-11-17T03:03:29.810Z,5.55
2022-11-17T03:06:45.682Z,5.50
2022-11-17T03:09:56.987Z,5.55
2022-11-17T03:13:04.702Z,5.57
2022-11-17T03:16:17.137Z,5.61
2022-11-17T03:19:26.464Z,5.60
2022-11-17T03:22:33.631Z,5.58
2022-11-17T03:25:37.964Z,5.63
2022-11-17T03:28:44.432Z,5.62
2022-11-17T03:31:52.423Z,5.60
2022-11-17T03:34:57.809Z,5.61
2022-11-17T03:38:08.171Z,5.70
2022-11-17T03:41:14.479Z,5.68
2022-11-17T03:44:19.641Z,5.72
2022-11-17T03:50:51.729Z,5.57
2022-11-17T03:53:54.536Z,5.64
2022-11-17T03:57:02.428Z,5.66
2022-11-17T04:00:07.718Z,5.64
2022-11-17T04:03:11.046Z,5.48
2022-11-17T04:06:13.065Z,5.58
2022-11-17T04:09:17.642Z,5.63
2022-11-17T04:12:23.409Z,5.63
2022-11-17T04:15:25.610Z,5.62
2022-11-17T04:18:29.079Z,5.64
2022-11-17T04:21:31.054Z,5.64
2022-11-17T04:24:33.059Z,5.64
2022-11-17T04:27:35.153Z,5.63
2022-11-17T04:30:37.428Z,5.60
2022-11-17T04:33:43.277Z,5.61
2022-11-17T04:36:45.753Z,5.67
2022-11-17T04:39:47.671Z,5.65
2022-11-17T04:42:49.611Z,5.68
2022-11-17T04:45:51.553Z,5.59
2022-11-17T04:48:55.475Z,5.57
2022-11-17T04:51:57.741Z,5.66
2022-11-17T04:55:00.229Z,5.57
2022-11-17T04:58:02.168Z,5.55
2022-11-17T05:01:04.317Z,5.58
2022-11-17T05:04:08.955Z,5.57
2022-11-17T05:07:10.955Z,5.62
2022-11-17T05:10:13.200Z,5.61
2022-11-17T05:13:15.917Z,5.60
2022-11-17T05:16:18.627Z,5.50
2022-11-17T05:19:24.032Z,5.45
2022-11-17T05:22:26.009Z,5.43
2022-11-17T05:25:27.952Z,5.41
2022-11-17T05:28:31.660Z,5.42
2022-11-17T05:31:34.464Z,5.41
2022-11-17T05:34:37.943Z,5.43
2022-11-17T05:37:40.296Z,5.43
2022-11-17T05:40:42.259Z,5.39
2022-11-17T05:43:44.555Z,5.43
2022-11-17T05:46:46.739Z,5.46
2022-11-17T05:49:50.155Z,5.46
2022-11-17T05:52:52.179Z,5.50
2022-11-17T05:56:07.507Z,5.49
2022-11-17T05:59:24.813Z,5.42
2022-11-17T06:02:32.550Z,5.50
2022-11-17T06:05:36.192Z,5.53
2022-11-17T06:08:38.170Z,5.54
2022-11-17T06:11:40.230Z,5.58
2022-11-17T06:14:42.622Z,5.60
2022-11-17T06:17:49.376Z,5.57
2022-11-17T06:20:52.849Z,5.58
2022-11-17T06:23:55.112Z,5.57
2022-11-17T06:26:57.144Z,5.51
2022-11-17T06:30:01.602Z,5.49
2022-11-17T06:33:05.631Z,5.52
2022-11-17T06:36:09.867Z,5.47
2022-11-17T06:39:11.966Z,5.46
2022-11-17T06:42:13.935Z,5.52
2022-11-17T06:45:15.931Z,5.53
2022-11-17T06:48:19.056Z,5.45
2022-11-17T06:51:22.440Z,5.42
2022-11-17T06:54:24.369Z,5.53
2022-11-17T06:57:26.517Z,5.47
2022-11-17T07:00:29.262Z,5.49
2022-11-17T07:03:33.215Z,5.49
2022-11-17T07:06:38.766Z,5.50
2022-11-17T07:09:40.663Z,5.46
2022-11-17T07:12:42.672Z,5.50
2022-11-17T07:15:44.621Z,5.53
2022-11-17T07:18:46.704Z,5.52
2022-11-17T07:21:50.145Z,5.55
2022-11-17T07:24:52.208Z,5.57
2022-11-17T07:27:58.436Z,5.57
2022-11-17T07:31:02.451Z,5.62
2022-11-17T07:34:04.401Z,5.65
2022-11-17T07:37:07.776Z,5.65
2022-11-17T07:40:10.776Z,5.68
2022-11-17T07:43:12.688Z,5.69
2022-11-17T07:46:15.573Z,5.71
2022-11-17T07:49:17.485Z,5.67
2022-11-17T07:52:20.854Z,5.74
2022-11-17T07:55:24.680Z,5.72
2022-11-17T07:58:26.618Z,5.72
2022-11-17T08:01:28.806Z,5.72
2022-11-17T08:04:30.779Z,5.74
2022-11-17T08:07:34.196Z,5.73
2022-11-17T08:10:36.219Z,5.68
2022-11-17T08:13:39.807Z,5.71
2022-11-17T08:16:41.710Z,5.75
2022-11-17T08:19:43.746Z,5.73
2022-11-17T08:22:47.106Z,5.72
2022-11-17T08:25:49.226Z,5.67
2022-11-17T08:28:55.255Z,5.73
2022-11-17T08:32:00.253Z,5.73
2022-11-17T08:35:02.323Z,5.84
2022-11-17T08:38:05.958Z,5.84
2022-11-17T08:41:09.705Z,5.83
2022-11-17T08:44:11.692Z,5.83
2022-11-17T08:47:14.072Z,5.82
2022-11-17T08:50:16.231Z,5.76
2022-11-17T08:53:21.905Z,5.72
2022-11-17T08:56:23.892Z,5.76
2022-11-17T08:59:25.933Z,5.73
2022-11-17T09:02:27.963Z,5.80
2022-11-17T09:05:29.988Z,5.82
2022-11-17T09:08:48.873Z,5.80
2022-11-17T09:11:50.894Z,5.88
2022-11-17T09:14:52.814Z,5.88
2022-11-17T09:17:54.896Z,5.92
2022-11-17T09:20:59.879Z,6.00
2022-11-17T09:24:03.591Z,6.04
2022-11-17T09:27:05.704Z,5.97
2022-11-17T09:30:08.751Z,5.98
2022-11-17T09:33:10.798Z,5.92
2022-11-17T09:36:14.569Z,5.92
2022-11-17T09:39:17.951Z,6.04
2022-11-17T09:42:22.325Z,6.13
2022-11-17T09:45:30.170Z,6.21
2022-11-17T09:48:41.476Z,6.30
2022-11-17T09:51:58.353Z,6.30
2022-11-17T09:55:04.611Z,6.40
2022-11-17T09:58:15.469Z,6.46
2022-11-17T10:01:19.362Z,6.30
2022-11-17T10:04:21.350Z,6.26
2022-11-17T10:07:23.851Z,6.29
2022-11-17T10:10:37.243Z,6.34
2022-11-17T10:13:39.773Z,6.21
2022-11-17T10:16:44.722Z,6.33
2022-11-17T10:19:46.695Z,6.40
2022-11-17T10:22:51.793Z,6.44
2022-11-17T10:25:58.945Z,6.47
2022-11-17T10:29:09.279Z,6.53
2022-11-17T10:32:15.118Z,6.59
2022-11-17T10:35:19.396Z,6.70
2022-11-17T10:38:23.149Z,6.73
2022-11-17T10:41:30.764Z,6.74
2022-11-17T10:44:33.804Z,6.73
2022-11-17T10:47:38.941Z,6.83
2022-11-17T10:50:51.545Z,6.90
2022-11-17T10:54:05.264Z,7.01
2022-11-17T10:57:15.980Z,6.94
2022-11-17T11:00:28.231Z,7.06
2022-11-17T11:03:32.099Z,7.07
2022-11-17T11:06:35.096Z,7.12
2022-11-17T11:09:42.799Z,7.07
2022-11-17T11:12:52.585Z,6.98
2022-11-17T11:15:54.818Z,7.16
2022-11-17T11:18:58.088Z,7.10
2022-11-17T11:22:26.355Z,7.12
2022-11-17T11:25:36.348Z,7.14
2022-11-17T11:28:55.000Z,7.09
2022-11-17T11:32:10.620Z,6.99
2022-11-17T11:35:42.854Z,7.17
2022-11-17T11:38:53.988Z,7.15
2022-11-17T11:42:14.931Z,7.12
2022-11-17T11:45:23.647Z,7.25
2022-11-17T11:48:27.850Z,7.18
2022-11-17T11:51:37.204Z,7.39
2022-11-17T11:54:46.315Z,7.22
2022-11-17T11:57:58.979Z,7.14
2022-11-17T12:01:05.843Z,7.18
2022-11-17T12:04:21.483Z,7.33
2022-11-17T12:07:28.883Z,7.34
2022-11-17T12:10:38.021Z,7.44
2022-11-17T12:13:47.235Z,7.31
2022-11-17T12:17:01.709Z,7.30
2022-11-17T12:20:10.658Z,7.30
2022-11-17T12:23:21.485Z,7.45
2022-11-17T12:26:26.307Z,7.55
2022-11-17T12:29:31.285Z,7.62
2022-11-17T12:32:53.923Z,7.53
2022-11-17T12:36:30.951Z,7.53
2022-11-17T12:39:57.296Z,7.50
2022-11-17T12:43:29.080Z,7.49
2022-11-17T12:46:32.829Z,7.43
2022-11-17T12:49:43.392Z,7.39
2022-11-17T12:52:56.708Z,7.37
2022-11-17T12:56:22.135Z,7.36
2022-11-17T12:59:58.478Z,7.45
2022-11-17T13:03:08.188Z,7.51
2022-11-17T13:06:34.486Z,7.48
2022-11-17T13:09:36.285Z,7.50
2022-11-17T13:12:38.232Z,7.36
2022-11-17T13:15:42.304Z,7.31
2022-11-17T13:18:44.987Z,7.38
2022-11-17T13:21:48.436Z,7.50
2022-11-17T13:24:50.849Z,7.56
2022-11-17T13:27:58.463Z,7.74
2022-11-17T13:31:03.609Z,7.78
2022-11-17T13:34:13.879Z,7.74
2022-11-17T13:37:19.896Z,7.71
2022-11-17T13:40:22.888Z,7.66
2022-11-17T13:43:26.490Z,7.74
2022-11-17T13:46:28.511Z,7.74
2022-11-17T13:49:33.252Z,7.84
2022-11-17T13:52:43.583Z,7.74
2022-11-17T13:55:48.934Z,7.78
2022-11-17T13:58:52.863Z,7.88
2022-11-17T14:02:24.069Z,7.78
2022-11-17T14:05:27.140Z,7.84
2022-11-17T14:08:32.973Z,7.86
2022-11-17T14:11:40.854Z,7.87
2022-11-17T14:14:44.971Z,7.85
2022-11-17T14:17:49.504Z,7.89
2022-11-17T14:21:05.050Z,7.82
2022-11-17T14:24:12.695Z,7.80
2022-11-17T14:27:37.904Z,7.85
2022-11-17T14:30:40.239Z,7.83
2022-11-17T14:33:42.172Z,7.85
2022-11-17T14:36:44.296Z,7.85
2022-11-17T14:39:47.576Z,7.90
2022-11-17T14:42:49.522Z,7.90
2022-11-17T14:45:51.417Z,7.89
2022-11-17T14:48:54.117Z,7.81
2022-11-17T14:51:56.013Z,7.79
2022-11-17T14:54:59.539Z,7.73
2022-11-17T14:58:01.409Z,7.61
2022-11-17T15:01:08.496Z,7.67
2022-11-17T15:04:43.072Z,7.59
2022-11-17T15:07:36.787Z,7.55
2022-11-17T15:10:44.343Z,7.55
2022-11-17T15:13:46.315Z,7.55
2022-11-17T15:16:48.349Z,7.32
2022-11-17T15:19:50.720Z,7.37
2022-11-17T15:22:52.678Z,7.38
2022-11-17T15:25:56.106Z,7.38
2022-11-17T15:28:58.096Z,7.34
2022-11-17T15:32:00.245Z,7.41
2022-11-17T15:35:02.413Z,7.44
2022-11-17T15:38:04.533Z,7.42
2022-11-17T15:41:09.586Z,7.44
2022-11-17T15:44:11.616Z,7.42
2022-11-17T15:47:14.659Z,7.46
2022-11-17T15:50:16.977Z,7.47
2022-11-17T15:53:18.953Z,7.49
2022-11-17T15:56:24.344Z,7.42
2022-11-17T15:59:26.494Z,7.44
2022-11-17T16:02:28.424Z,7.47
2022-11-17T16:05:30.344Z,7.49
2022-11-17T16:08:32.727Z,7.49
2022-11-17T16:11:36.828Z,7.51
2022-11-17T16:14:38.980Z,7.48
2022-11-17T16:17:40.886Z,7.48
2022-11-17T16:20:42.884Z,7.48
2022-11-17T16:23:46.625Z,7.48
2022-11-17T16:26:50.444Z,7.48
2022-11-17T16:29:52.392Z,7.49
2022-11-17T16:32:54.474Z,7.45
2022-11-17T16:36:04.183Z,7.36
2022-11-17T16:39:07.967Z,7.30
2022-11-17T16:42:11.782Z,7.28
2022-11-17T16:45:14.295Z,7.32
2022-11-17T16:48:16.375Z,7.22
2022-11-17T16:51:20.682Z,7.20
2022-11-17T16:54:22.900Z,7.18
2022-11-17T16:57:27.384Z,7.11
2022-11-17T17:00:31.796Z,7.08
2022-11-17T17:03:34.262Z,6.99
2022-11-17T17:06:41.773Z,6.96
2022-11-17T17:09:44.283Z,6.86
2022-11-17T17:12:48.128Z,6.90
2022-11-17T17:15:50.222Z,6.92
2022-11-17T17:18:56.073Z,6.95
2022-11-17T17:21:58.034Z,6.92
2022-11-17T17:25:00.517Z,6.84
2022-11-17T17:28:04.489Z,6.81
2022-11-17T17:31:07.529Z,6.43
2022-11-17T17:34:12.661Z,6.15
2022-11-17T17:37:15.408Z,6.10
2022-11-17T17:40:19.156Z,6.11
2022-11-17T17:43:23.379Z,6.21
2022-11-17T17:46:26.264Z,6.26
2022-11-17T17:49:28.830Z,6.30
2022-11-17T17:52:31.433Z,6.22
2022-11-17T17:55:35.144Z,6.11
2022-11-17T17:58:42.681Z,6.30
2022-11-17T18:04:16.440Z,6.40
2022-11-17T18:07:19.493Z,6.39
2022-11-17T18:10:21.690Z,6.39
2022-11-17T18:13:24.873Z,6.48
2022-11-17T18:16:29.388Z,6.50
2022-11-17T18:19:33.367Z,6.44
2022-11-17T18:22:36.575Z,6.37
2022-11-17T18:25:39.246Z,6.34
2022-11-17T18:28:42.768Z,6.41
2022-11-17T18:31:45.801Z,6.46
2022-11-17T18:34:50.035Z,6.52
2022-11-17T18:37:52.699Z,6.54
2022-11-17T18:41:03.165Z,6.53
2022-11-17T18:44:07.113Z,6.31
2022-11-17T18:47:11.332Z,6.07
2022-11-17T18:50:18.106Z,5.71
2022-11-17T18:53:20.567Z,5.78
2022-11-17T18:56:24.982Z,5.85
2022-11-17T18:59:27.879Z,5.87
2022-11-17T19:02:30.799Z,5.94
2022-11-17T19:05:36.574Z,5.98
2022-11-17T19:08:40.292Z,6.12
2022-11-17T19:11:43.437Z,6.20
2022-11-17T19:14:46.545Z,6.19
2022-11-17T19:17:49.774Z,5.96
2022-11-17T19:20:53.934Z,5.72
2022-11-17T19:23:58.943Z,5.69
2022-11-17T19:27:02.165Z,5.67
2022-11-17T19:30:08.403Z,5.77
2022-11-17T19:33:11.177Z,5.81
2022-11-17T19:36:17.276Z,5.88
2022-11-17T19:39:20.484Z,5.93
2022-11-17T19:42:23.723Z,5.97
2022-11-17T19:45:28.402Z,5.93
2022-11-17T19:48:32.331Z,5.96
2022-11-17T19:51:37.256Z,5.96
2022-11-17T19:54:39.871Z,6.08
2022-11-17T19:57:42.804Z,6.14
2022-11-17T20:00:46.758Z,6.10
2022-11-17T20:03:51.367Z,6.15
2022-11-17T20:06:55.598Z,6.15
2022-11-17T20:09:58.312Z,6.19
2022-11-17T20:13:01.289Z,6.15
2022-11-17T20:16:11.462Z,6.13
2022-11-17T20:19:15.194Z,6.06
2022-11-17T20:22:19.748Z,6.04
2022-11-17T20:25:21.968Z,6.06
2022-11-17T20:28:24.624Z,6.07
2022-11-17T20:31:30.159Z,6.04
2022-11-17T20:34:32.899Z,6.00
2022-11-17T20:37:36.972Z,5.99
2022-11-17T20:40:39.416Z,5.84
2022-11-17T20:43:42.039Z,5.81
2022-11-17T20:46:44.197Z,5.95
2022-11-17T20:49:46.975Z,5.92
2022-11-17T20:52:51.277Z,6.03
2022-11-17T20:55:55.240Z,6.03
2022-11-17T20:58:57.735Z,5.81
2022-11-17T21:02:00.444Z,5.92
2022-11-17T21:05:02.959Z,5.93
2022-11-17T21:08:06.818Z,5.92
2022-11-17T21:11:11.377Z,5.92
2022-11-17T21:14:13.901Z,5.90
2022-11-17T21:17:16.610Z,5.93
2022-11-17T21:20:18.754Z,5.93
2022-11-17T21:23:22.000Z,5.84
2022-11-17T21:26:24.319Z,5.87
2022-11-17T21:29:27.007Z,5.93
2022-11-17T21:32:28.857Z,5.70
2022-11-17T21:35:30.731Z,5.73
2022-11-17T21:38:34.156Z,5.77
2022-11-17T21:41:36.017Z,5.81
2022-11-17T21:44:38.059Z,5.76
2022-11-17T21:47:40.004Z,5.79
2022-11-17T21:50:43.609Z,5.69
2022-11-17T21:53:47.696Z,5.67
2022-11-17T21:56:49.575Z,5.58
2022-11-17T21:59:51.471Z,5.52
2022-11-17T22:02:53.393Z,5.44
2022-11-17T22:06:04.274Z,5.42
2022-11-17T22:09:07.710Z,5.49
2022-11-17T22:12:09.620Z,5.49
2022-11-17T22:15:11.972Z,5.54
2022-11-17T22:18:13.914Z,5.53
2022-11-17T22:21:15.820Z,5.54
2022-11-17T22:24:19.078Z,5.50
2022-11-17T22:27:20.898Z,5.54
2022-11-17T22:30:22.861Z,5.58
2022-11-17T22:33:25.128Z,5.64
2022-11-17T22:36:26.985Z,5.56
2022-11-17T22:39:30.284Z,5.54
2022-11-17T22:42:32.102Z,5.60
2022-11-17T22:45:35.741Z,5.66
2022-11-17T22:48:38.265Z,5.60
2022-11-17T22:51:40.138Z,5.62
2022-11-17T22:54:43.321Z,5.65
2022-11-17T22:57:45.141Z,5.58
2022-11-17T23:00:47.301Z,5.60
2022-11-17T23:03:49.290Z,5.52
2022-11-17T23:06:51.692Z,5.54
2022-11-17T23:09:54.903Z,5.51
2022-11-17T23:12:56.759Z,5.44
2022-11-17T23:15:58.643Z,5.34
2022-11-17T23:19:00.729Z,5.26
2022-11-17T23:22:02.572Z,5.09
2022-11-17T23:25:06.546Z,4.69
2022-11-17T23:28:08.453Z,4.71
2022-11-17T23:31:12.249Z,4.69
2022-11-17T23:34:14.093Z,4.77
2022-11-17T23:37:16.826Z,4.57
2022-11-17T23:40:20.039Z,4.59
2022-11-17T23:43:21.868Z,4.58
2022-11-17T23:46:25.430Z,4.62
2022-11-17T23:49:27.258Z,4.69
2022-11-17T23:52:29.031Z,4.63
2022-11-17T23:55:32.484Z,4.68
2022-11-17T23:58:34.423Z,4.66
